createdAt,value
2019-05-01T00:00:26.574Z,0.96
2019-05-01T00:01:26.524Z,0.83
2019-05-01T00:02:26.507Z,0.72
2019-05-01T00:03:26.428Z,0.30
2019-05-01T00:04:26.428Z,0.39
2019-05-01T00:05:26.576Z,1.42
2019-05-01T00:06:26.587Z,1.76
2019-05-01T00:07:26.568Z,1.15
2019-05-01T00:08:26.562Z,0.57
2019-05-01T00:09:26.451Z,0.93
2019-05-01T00:10:26.634Z,1.13
2019-05-01T00:11:26.510Z,1.81
2019-05-01T00:12:26.645Z,0.77
2019-05-01T00:13:26.516Z,0.60
2019-05-01T00:14:26.692Z,0.62
2019-05-01T00:15:26.522Z,0.91
2019-05-01T00:16:26.470Z,0.29
2019-05-01T00:17:27.872Z,0.95
2019-05-01T00:18:26.553Z,0.28
2019-05-01T00:19:26.462Z,0.02
2019-05-01T00:20:26.442Z,0.01
2019-05-01T00:21:26.492Z,0.05
2019-05-01T00:22:26.577Z,0.56
2019-05-01T00:23:26.648Z,0.43
2019-05-01T00:24:26.497Z,0.05
2019-05-01T00:25:26.489Z,0.13
2019-05-01T00:26:26.573Z,0.36
2019-05-01T00:27:26.595Z,0.11
2019-05-01T00:28:26.658Z,0.45
2019-05-01T00:29:26.556Z,0.60
2019-05-01T00:30:30.149Z,0.00
2019-05-01T00:31:26.582Z,0.00
2019-05-01T00:32:26.569Z,0.42
2019-05-01T00:33:26.466Z,0.39
2019-05-01T00:34:26.686Z,0.78
2019-05-01T00:35:26.431Z,0.89
2019-05-01T00:36:26.669Z,0.45
2019-05-01T00:37:26.588Z,0.81
2019-05-01T00:38:26.536Z,0.05
2019-05-01T00:39:26.536Z,0.06
2019-05-01T00:40:26.536Z,0.44
2019-05-01T00:41:26.527Z,0.97
2019-05-01T00:42:26.728Z,0.07
2019-05-01T00:43:26.556Z,0.29
2019-05-01T00:44:26.532Z,0.56
2019-05-01T00:45:26.648Z,0.07
2019-05-01T00:46:26.448Z,0.00
2019-05-01T00:47:26.482Z,0.00
2019-05-01T00:48:26.517Z,0.08
2019-05-01T00:49:26.535Z,0.09
2019-05-01T00:50:26.605Z,0.08
2019-05-01T00:51:26.665Z,0.00
2019-05-01T00:52:26.700Z,0.00
2019-05-01T00:53:26.488Z,0.09
2019-05-01T00:54:26.601Z,0.00
2019-05-01T00:55:26.712Z,0.01
2019-05-01T00:56:26.617Z,0.01
2019-05-01T00:57:26.579Z,0.56
2019-05-01T00:58:26.662Z,1.00
2019-05-01T00:59:26.683Z,0.61
2019-05-01T01:00:26.521Z,0.79
2019-05-01T01:01:26.731Z,0.07
2019-05-01T01:02:26.585Z,0.06
2019-05-01T01:03:26.494Z,0.29
2019-05-01T01:04:26.477Z,0.19
2019-05-01T01:05:26.535Z,0.15
2019-05-01T01:06:26.467Z,0.76
2019-05-01T01:07:26.742Z,0.94
2019-05-01T01:08:26.494Z,0.50
2019-05-01T01:09:26.644Z,0.25
2019-05-01T01:10:26.658Z,0.23
2019-05-01T01:11:26.569Z,0.32
2019-05-01T01:12:26.570Z,0.14
2019-05-01T01:13:26.658Z,0.94
2019-05-01T01:14:26.595Z,0.58
2019-05-01T01:15:26.742Z,1.04
2019-05-01T01:16:26.558Z,0.03
2019-05-01T01:17:26.692Z,0.02
2019-05-01T01:18:26.712Z,0.64
2019-05-01T01:19:26.477Z,0.06
2019-05-01T01:20:26.554Z,0.70
2019-05-01T01:21:26.674Z,0.37
2019-05-01T01:22:26.615Z,0.04
2019-05-01T01:23:26.520Z,0.33
2019-05-01T01:24:26.605Z,0.70
2019-05-01T01:25:26.576Z,0.43
2019-05-01T01:26:26.619Z,0.94
2019-05-01T01:27:26.984Z,0.12
2019-05-01T01:28:26.713Z,0.35
2019-05-01T01:29:26.659Z,0.61
2019-05-01T01:30:26.632Z,1.24
2019-05-01T01:31:26.653Z,1.71
2019-05-01T01:32:26.616Z,1.22
2019-05-01T01:33:26.755Z,1.33
2019-05-01T01:34:26.605Z,1.77
2019-05-01T01:35:26.520Z,1.66
2019-05-01T01:36:26.662Z,1.25
2019-05-01T01:37:26.829Z,0.93
2019-05-01T01:38:26.693Z,0.44
2019-05-01T01:39:27.721Z,0.10
2019-05-01T01:40:26.856Z,0.37
2019-05-01T01:41:26.601Z,0.03
2019-05-01T01:42:26.673Z,1.02
2019-05-01T01:43:26.585Z,0.20
2019-05-01T01:44:26.560Z,0.60
2019-05-01T01:45:26.663Z,0.62
2019-05-01T01:46:26.711Z,0.73
2019-05-01T01:47:26.807Z,0.42
2019-05-01T01:48:26.523Z,0.73
2019-05-01T01:49:26.511Z,0.89
2019-05-01T01:50:26.532Z,0.16
2019-05-01T01:51:26.825Z,0.19
2019-05-01T01:52:26.562Z,0.00
2019-05-01T01:53:26.726Z,0.02
2019-05-01T01:54:26.726Z,0.23
2019-05-01T01:55:26.665Z,0.11
2019-05-01T01:56:26.727Z,0.25
2019-05-01T01:57:26.675Z,0.06
2019-05-01T01:58:26.727Z,0.25
2019-05-01T01:59:26.606Z,0.38
2019-05-01T02:00:26.695Z,1.09
2019-05-01T02:01:26.688Z,0.76
2019-05-01T02:02:26.814Z,1.09
2019-05-01T02:03:26.643Z,0.39
2019-05-01T02:04:26.659Z,1.10
2019-05-01T02:05:26.732Z,0.84
2019-05-01T02:06:26.707Z,1.16
2019-05-01T02:07:26.689Z,0.61
2019-05-01T02:08:26.687Z,0.37
2019-05-01T02:09:26.681Z,0.77
2019-05-01T02:10:26.879Z,0.22
2019-05-01T02:11:26.659Z,0.00
2019-05-01T02:12:26.715Z,0.00
2019-05-01T02:13:26.934Z,0.00
2019-05-01T02:14:26.771Z,0.00
2019-05-01T02:15:26.742Z,0.00
2019-05-01T02:16:26.882Z,0.05
2019-05-01T02:17:26.787Z,0.05
2019-05-01T02:18:26.784Z,0.00
2019-05-01T02:19:28.015Z,0.00
2019-05-01T02:20:26.906Z,0.00
2019-05-01T02:21:26.866Z,0.00
2019-05-01T02:22:26.984Z,0.25
2019-05-01T02:23:27.015Z,0.00
2019-05-01T02:24:27.047Z,0.60
2019-05-01T02:25:27.025Z,0.01
2019-05-01T02:26:26.838Z,0.00
2019-05-01T02:27:27.020Z,0.00
2019-05-01T02:28:26.879Z,0.00
2019-05-01T02:29:27.075Z,0.05
2019-05-01T02:30:26.981Z,0.02
2019-05-01T02:31:29.344Z,0.00
2019-05-01T02:32:26.963Z,0.00
2019-05-01T02:33:27.003Z,0.00
2019-05-01T02:34:26.982Z,0.36
2019-05-01T02:35:30.367Z,0.49
2019-05-01T02:36:27.031Z,0.25
2019-05-01T02:37:27.089Z,0.40
2019-05-01T02:38:27.158Z,0.23
2019-05-01T02:39:27.097Z,0.23
2019-05-01T02:40:27.031Z,0.00
2019-05-01T02:41:28.199Z,0.00
2019-05-01T02:42:28.089Z,0.00
2019-05-01T02:43:27.108Z,0.35
2019-05-01T02:44:27.054Z,0.53
2019-05-01T02:45:26.957Z,0.31
2019-05-01T02:46:27.313Z,0.42
2019-05-01T02:47:27.085Z,1.05
2019-05-01T02:48:27.099Z,1.14
2019-05-01T02:49:27.134Z,0.37
2019-05-01T02:50:27.048Z,0.00
2019-05-01T02:51:27.159Z,0.04
2019-05-01T02:52:27.079Z,0.50
2019-05-01T02:53:27.077Z,0.12
2019-05-01T02:54:27.159Z,0.30
2019-05-01T02:55:27.049Z,0.08
2019-05-01T02:56:26.960Z,0.66
2019-05-01T02:57:27.215Z,0.53
2019-05-01T02:58:27.235Z,0.11
2019-05-01T02:59:27.073Z,0.00
2019-05-01T03:00:27.110Z,0.00
2019-05-01T03:01:37.178Z,0.00
2019-05-01T03:02:27.196Z,0.23
2019-05-01T03:03:27.044Z,0.37
2019-05-01T03:04:27.200Z,0.00
2019-05-01T03:05:27.268Z,0.01
2019-05-01T03:06:27.035Z,0.10
2019-05-01T03:07:27.185Z,0.14
2019-05-01T03:08:27.279Z,0.36
2019-05-01T03:09:27.068Z,0.26
2019-05-01T03:10:27.028Z,0.13
2019-05-01T03:11:27.092Z,0.00
2019-05-01T03:12:27.100Z,0.68
2019-05-01T03:13:27.127Z,0.66
2019-05-01T03:14:27.171Z,0.06
2019-05-01T03:15:27.229Z,0.47
2019-05-01T03:16:27.331Z,1.26
2019-05-01T03:17:27.209Z,1.64
2019-05-01T03:18:27.241Z,0.57
2019-05-01T03:19:27.334Z,0.98
2019-05-01T03:20:27.182Z,0.48
2019-05-01T03:21:27.126Z,0.19
2019-05-01T03:22:27.054Z,0.21
2019-05-01T03:23:27.066Z,0.64
2019-05-01T03:24:27.092Z,0.01
2019-05-01T03:25:27.145Z,0.00
2019-05-01T03:26:27.119Z,0.16
2019-05-01T03:27:27.184Z,0.20
2019-05-01T03:28:27.134Z,0.31
2019-05-01T03:29:27.148Z,0.40
2019-05-01T03:30:27.175Z,0.27
2019-05-01T03:31:27.266Z,0.05
2019-05-01T03:32:27.582Z,0.00
2019-05-01T03:33:27.191Z,0.22
2019-05-01T03:34:27.177Z,0.41
2019-05-01T03:35:27.153Z,0.16
2019-05-01T03:36:27.080Z,0.32
2019-05-01T03:37:27.191Z,0.58
2019-05-01T03:38:27.149Z,0.52
2019-05-01T03:39:27.188Z,0.55
2019-05-01T03:40:27.051Z,0.22
2019-05-01T03:41:27.499Z,0.30
2019-05-01T03:42:27.143Z,1.13
2019-05-01T03:43:27.228Z,0.97
2019-05-01T03:44:27.075Z,1.33
2019-05-01T03:45:27.245Z,0.59
2019-05-01T03:46:27.125Z,1.32
2019-05-01T03:47:28.256Z,1.01
2019-05-01T03:48:27.165Z,0.68
2019-05-01T03:49:27.147Z,0.68
2019-05-01T03:50:27.254Z,0.88
2019-05-01T03:51:27.121Z,0.97
2019-05-01T03:52:27.399Z,0.85
2019-05-01T03:53:27.077Z,0.77
2019-05-01T03:54:27.189Z,0.74
2019-05-01T03:55:27.085Z,0.10
2019-05-01T03:56:27.666Z,0.45
2019-05-01T03:57:27.133Z,0.64
2019-05-01T03:58:27.142Z,0.64
2019-05-01T03:59:27.242Z,0.52
2019-05-01T04:00:27.141Z,0.58
2019-05-01T04:01:27.266Z,1.03
2019-05-01T04:02:33.453Z,0.64
2019-05-01T04:03:27.325Z,1.93
2019-05-01T04:04:27.200Z,0.76
2019-05-01T04:05:27.180Z,1.29
2019-05-01T04:06:27.226Z,2.16
2019-05-01T04:07:28.218Z,0.76
2019-05-01T04:08:27.144Z,0.37
2019-05-01T04:09:27.134Z,0.47
2019-05-01T04:10:27.132Z,2.73
2019-05-01T04:11:27.087Z,1.51
2019-05-01T04:12:27.246Z,3.20
2019-05-01T04:13:27.270Z,1.72
2019-05-01T04:14:27.332Z,0.74
2019-05-01T04:15:27.200Z,0.65
2019-05-01T04:16:27.201Z,0.57
2019-05-01T04:17:27.167Z,1.18
2019-05-01T04:18:27.295Z,1.44
2019-05-01T04:19:28.276Z,2.29
2019-05-01T04:20:27.253Z,1.21
2019-05-01T04:21:27.190Z,1.46
2019-05-01T04:22:27.206Z,1.35
2019-05-01T04:23:27.263Z,0.76
2019-05-01T04:24:27.082Z,0.81
2019-05-01T04:25:27.296Z,0.38
2019-05-01T04:26:27.099Z,0.49
2019-05-01T04:27:27.126Z,0.42
2019-05-01T04:28:27.183Z,0.66
2019-05-01T04:29:27.206Z,1.33
2019-05-01T04:30:27.157Z,0.22
2019-05-01T04:31:27.395Z,0.60
2019-05-01T04:32:27.223Z,0.88
2019-05-01T04:33:27.216Z,0.52
2019-05-01T04:34:27.193Z,0.86
2019-05-01T04:35:27.298Z,1.67
2019-05-01T04:36:27.302Z,2.03
2019-05-01T04:37:27.348Z,1.69
2019-05-01T04:38:27.214Z,1.30
2019-05-01T04:39:27.255Z,1.78
2019-05-01T04:40:27.329Z,2.54
2019-05-01T04:41:27.138Z,1.29
2019-05-01T04:42:27.304Z,1.98
2019-05-01T04:43:27.376Z,1.87
2019-05-01T04:44:27.288Z,0.82
2019-05-01T04:45:27.230Z,1.93
2019-05-01T04:46:27.322Z,2.00
2019-05-01T04:47:27.635Z,2.15
2019-05-01T04:48:27.484Z,1.35
2019-05-01T04:49:27.523Z,1.37
2019-05-01T04:50:27.437Z,3.71
2019-05-01T04:51:27.438Z,3.48
2019-05-01T04:52:27.402Z,3.08
2019-05-01T04:53:27.533Z,2.23
2019-05-01T04:54:27.430Z,2.77
2019-05-01T04:55:27.508Z,2.10
2019-05-01T04:56:27.471Z,3.11
2019-05-01T04:57:27.547Z,2.62
2019-05-01T04:58:27.607Z,2.37
2019-05-01T04:59:27.504Z,1.57
2019-05-01T05:00:27.448Z,1.72
2019-05-01T05:01:27.493Z,2.12
2019-05-01T05:02:27.529Z,2.04
2019-05-01T05:03:27.565Z,2.27
2019-05-01T05:04:27.630Z,2.47
2019-05-01T05:05:27.637Z,2.23
2019-05-01T05:06:27.526Z,2.65
2019-05-01T05:07:27.648Z,3.49
2019-05-01T05:08:27.571Z,2.56
2019-05-01T05:09:27.742Z,2.66
2019-05-01T05:10:27.685Z,2.32
2019-05-01T05:11:27.752Z,2.07
2019-05-01T05:12:27.749Z,2.46
2019-05-01T05:13:27.705Z,2.97
2019-05-01T05:14:27.663Z,2.96
2019-05-01T05:15:27.711Z,2.92
2019-05-01T05:16:28.009Z,2.65
2019-05-01T05:17:27.815Z,2.26
2019-05-01T05:18:28.083Z,1.17
2019-05-01T05:19:27.778Z,2.49
2019-05-01T05:20:27.922Z,1.86
2019-05-01T05:21:27.805Z,2.12
2019-05-01T05:22:27.778Z,1.90
2019-05-01T05:23:27.729Z,1.48
2019-05-01T05:24:27.744Z,2.09
2019-05-01T05:25:27.834Z,2.41
2019-05-01T05:26:27.820Z,2.33
2019-05-01T05:27:27.728Z,1.94
2019-05-01T05:28:27.910Z,1.56
2019-05-01T05:29:27.841Z,1.53
2019-05-01T05:30:27.795Z,1.02
2019-05-01T05:31:28.068Z,0.18
2019-05-01T05:32:27.811Z,0.90
2019-05-01T05:33:27.795Z,0.96
2019-05-01T05:34:28.156Z,1.27
2019-05-01T05:35:27.906Z,2.02
2019-05-01T05:36:28.099Z,2.16
2019-05-01T05:37:28.028Z,2.12
2019-05-01T05:38:28.021Z,1.67
2019-05-01T05:39:27.959Z,2.52
2019-05-01T05:40:28.015Z,1.40
2019-05-01T05:41:28.103Z,2.38
2019-05-01T05:42:28.096Z,2.50
2019-05-01T05:43:28.064Z,2.26
2019-05-01T05:44:28.095Z,3.21
2019-05-01T05:45:28.099Z,2.28
2019-05-01T05:46:27.985Z,1.34
2019-05-01T05:47:28.035Z,0.70
2019-05-01T05:48:28.197Z,1.39
2019-05-01T05:49:28.019Z,1.33
2019-05-01T05:50:28.004Z,1.54
2019-05-01T05:51:28.074Z,1.15
2019-05-01T05:52:28.037Z,2.30
2019-05-01T05:53:28.457Z,2.18
2019-05-01T05:54:28.105Z,1.65
2019-05-01T05:55:28.163Z,1.64
2019-05-01T05:56:28.065Z,1.31
2019-05-01T05:57:29.925Z,1.65
2019-05-01T05:58:28.288Z,1.32
2019-05-01T05:59:28.160Z,1.86
2019-05-01T06:00:28.143Z,2.24
2019-05-01T06:01:28.111Z,1.40
2019-05-01T06:02:28.207Z,1.27
2019-05-01T06:03:31.617Z,1.37
2019-05-01T06:04:28.273Z,1.63
2019-05-01T06:05:28.212Z,0.59
2019-05-01T06:06:28.161Z,0.43
2019-05-01T06:07:28.130Z,0.96
2019-05-01T06:08:28.091Z,1.14
2019-05-01T06:09:28.195Z,1.99
2019-05-01T06:10:28.202Z,1.42
2019-05-01T06:11:29.761Z,0.98
2019-05-01T06:12:28.205Z,1.30
2019-05-01T06:13:28.179Z,0.41
2019-05-01T06:14:31.411Z,1.05
2019-05-01T06:15:28.335Z,0.89
2019-05-01T06:16:29.255Z,0.12
2019-05-01T06:17:28.748Z,0.03
2019-05-01T06:18:28.279Z,0.56
2019-05-01T06:19:28.132Z,0.93
2019-05-01T06:20:28.158Z,0.63
2019-05-01T06:21:28.117Z,1.24
2019-05-01T06:22:28.153Z,1.01
2019-05-01T06:23:29.176Z,2.27
2019-05-01T06:24:28.198Z,1.21
2019-05-01T06:25:28.296Z,0.57
2019-05-01T06:26:31.938Z,0.52
2019-05-01T06:27:28.374Z,1.89
2019-05-01T06:28:29.735Z,1.91
2019-05-01T06:29:30.918Z,1.30
2019-05-01T06:30:28.152Z,0.49
2019-05-01T06:31:28.184Z,0.53
2019-05-01T06:32:28.831Z,0.15
2019-05-01T06:33:28.196Z,0.32
2019-05-01T06:34:28.668Z,0.47
2019-05-01T06:35:28.208Z,0.15
2019-05-01T06:36:28.215Z,0.91
2019-05-01T06:37:28.207Z,1.69
2019-05-01T06:38:31.474Z,1.14
2019-05-01T06:39:28.243Z,1.34
2019-05-01T06:40:28.087Z,3.31
2019-05-01T06:41:28.715Z,2.74
2019-05-01T06:42:28.253Z,1.82
2019-05-01T06:43:28.219Z,2.50
2019-05-01T06:44:28.186Z,1.93
2019-05-01T06:45:28.213Z,1.96
2019-05-01T06:46:29.113Z,1.25
2019-05-01T06:47:29.235Z,1.02
2019-05-01T06:48:28.279Z,0.73
2019-05-01T06:49:29.322Z,0.65
2019-05-01T06:50:28.252Z,0.74
2019-05-01T06:51:28.172Z,0.76
2019-05-01T06:52:29.304Z,0.87
2019-05-01T06:53:28.085Z,3.40
2019-05-01T06:54:28.264Z,3.41
2019-05-01T06:55:28.953Z,1.24
2019-05-01T06:56:28.229Z,2.39
2019-05-01T06:57:28.193Z,2.40
2019-05-01T06:58:28.264Z,3.31
2019-05-01T06:59:31.562Z,3.28
2019-05-01T07:00:28.197Z,1.01
2019-05-01T07:01:28.208Z,1.01
2019-05-01T07:02:29.933Z,0.91
2019-05-01T07:03:28.200Z,1.57
2019-05-01T07:04:32.422Z,2.39
2019-05-01T07:05:28.109Z,3.05
2019-05-01T07:06:31.036Z,2.32
2019-05-01T07:07:28.277Z,3.87
2019-05-01T07:08:29.592Z,3.29
2019-05-01T07:09:28.424Z,3.16
2019-05-01T07:10:30.890Z,3.08
2019-05-01T07:11:28.190Z,1.40
2019-05-01T07:12:29.808Z,1.43
2019-05-01T07:13:28.186Z,2.23
2019-05-01T07:14:28.185Z,2.30
2019-05-01T07:15:28.447Z,2.91
2019-05-01T07:16:28.250Z,3.05
2019-05-01T07:17:28.251Z,2.33
2019-05-01T07:18:29.221Z,1.70
2019-05-01T07:19:28.212Z,1.56
2019-05-01T07:20:28.295Z,1.02
2019-05-01T07:21:32.412Z,0.30
2019-05-01T07:22:28.156Z,1.30
2019-05-01T07:23:28.288Z,0.92
2019-05-01T07:24:29.090Z,2.33
2019-05-01T07:25:28.126Z,2.25
2019-05-01T07:26:28.242Z,0.90
2019-05-01T07:27:28.296Z,1.58
2019-05-01T07:28:32.359Z,2.13
2019-05-01T07:29:28.148Z,3.30
2019-05-01T07:30:28.223Z,3.98
2019-05-01T07:31:30.907Z,2.30
2019-05-01T07:32:28.404Z,1.11
2019-05-01T07:33:28.263Z,1.10
2019-05-01T07:34:28.285Z,1.13
2019-05-01T07:35:32.965Z,0.37
2019-05-01T07:36:28.288Z,1.09
2019-05-01T07:37:28.151Z,0.76
2019-05-01T07:38:28.303Z,1.26
2019-05-01T07:39:28.279Z,1.18
2019-05-01T07:40:30.101Z,1.27
2019-05-01T07:41:28.253Z,0.67
2019-05-01T07:42:28.182Z,1.40
2019-05-01T07:43:28.470Z,3.37
2019-05-01T07:44:30.070Z,4.37
2019-05-01T07:45:28.331Z,4.41
2019-05-01T07:46:28.116Z,4.07
2019-05-01T07:47:30.536Z,3.53
2019-05-01T07:48:28.105Z,3.06
2019-05-01T07:49:28.238Z,2.78
2019-05-01T07:50:31.576Z,2.08
2019-05-01T07:51:28.294Z,1.66
2019-05-01T07:52:28.321Z,2.36
2019-05-01T07:53:28.495Z,3.15
2019-05-01T07:54:28.475Z,3.75
2019-05-01T07:55:28.292Z,4.31
2019-05-01T07:56:29.971Z,3.19
2019-05-01T07:57:28.228Z,4.41
2019-05-01T07:58:28.223Z,2.74
2019-05-01T07:59:28.742Z,2.76
2019-05-01T08:00:28.381Z,3.10
2019-05-01T08:01:28.233Z,3.11
2019-05-01T08:02:31.162Z,3.95
2019-05-01T08:03:28.264Z,3.45
2019-05-01T08:05:28.457Z,2.52
2019-05-01T08:06:28.963Z,2.84
2019-05-01T08:07:32.418Z,3.94
2019-05-01T08:08:28.287Z,3.72
2019-05-01T08:09:28.330Z,4.32
2019-05-01T08:10:31.445Z,3.47
2019-05-01T08:11:28.664Z,2.23
2019-05-01T08:12:28.299Z,2.62
2019-05-01T08:13:30.708Z,3.32
2019-05-01T08:14:28.274Z,3.07
2019-05-01T08:15:32.380Z,4.04
2019-05-01T08:16:28.506Z,1.36
2019-05-01T08:17:28.511Z,2.61
2019-05-01T08:18:29.282Z,2.35
2019-05-01T08:19:28.168Z,3.61
2019-05-01T08:20:28.287Z,2.99
2019-05-01T08:21:28.332Z,4.25
2019-05-01T08:22:32.048Z,4.57
2019-05-01T08:23:28.285Z,3.78
2019-05-01T08:24:28.330Z,3.76
2019-05-01T08:25:28.677Z,2.28
2019-05-01T08:26:28.317Z,2.70
2019-05-01T08:27:28.455Z,3.16
2019-05-01T08:28:32.054Z,3.11
2019-05-01T08:29:28.305Z,3.64
2019-05-01T08:30:28.225Z,3.29
2019-05-01T08:31:29.109Z,4.73
2019-05-01T08:32:28.389Z,3.52
2019-05-01T08:33:28.436Z,3.64
2019-05-01T08:34:29.804Z,2.93
2019-05-01T08:35:31.857Z,1.93
2019-05-01T08:36:28.442Z,2.25
2019-05-01T08:37:28.339Z,1.98
2019-05-01T08:38:29.888Z,2.00
2019-05-01T08:39:28.337Z,1.37
2019-05-01T08:40:28.417Z,1.86
2019-05-01T08:41:31.841Z,3.14
2019-05-01T08:42:28.499Z,2.43
2019-05-01T08:43:28.247Z,3.29
2019-05-01T08:44:29.631Z,2.53
2019-05-01T08:45:28.880Z,3.52
2019-05-01T08:46:28.414Z,4.26
2019-05-01T08:47:28.286Z,3.37
2019-05-01T08:48:30.774Z,2.08
2019-05-01T08:49:28.507Z,0.78
2019-05-01T08:50:28.395Z,0.61
2019-05-01T08:51:30.161Z,1.36
2019-05-01T08:52:28.351Z,1.12
2019-05-01T08:53:28.411Z,2.07
2019-05-01T08:54:28.815Z,1.09
2019-05-01T08:55:28.408Z,2.83
2019-05-01T08:56:28.308Z,0.99
2019-05-01T08:57:29.022Z,0.63
2019-05-01T08:58:28.277Z,0.45
2019-05-01T08:59:28.389Z,1.00
2019-05-01T09:00:30.982Z,1.19
2019-05-01T09:01:28.339Z,0.95
2019-05-01T09:02:28.600Z,3.38
2019-05-01T09:03:28.311Z,3.68
2019-05-01T09:04:30.593Z,3.77
2019-05-01T09:05:31.281Z,0.71
2019-05-01T09:06:34.848Z,1.46
2019-05-01T09:07:28.428Z,0.65
2019-05-01T09:08:31.956Z,0.75
2019-05-01T09:09:28.351Z,1.96
2019-05-01T09:10:28.370Z,1.88
2019-05-01T09:11:31.846Z,1.14
2019-05-01T09:12:28.350Z,0.65
2019-05-01T09:13:28.242Z,0.65
2019-05-01T09:14:29.724Z,0.69
2019-05-01T09:15:28.393Z,0.89
2019-05-01T09:16:30.102Z,0.69
2019-05-01T09:17:28.401Z,2.42
2019-05-01T09:18:28.457Z,2.84
2019-05-01T09:19:28.377Z,1.09
2019-05-01T09:20:32.085Z,1.82
2019-05-01T09:21:28.400Z,1.35
2019-05-01T09:22:28.581Z,2.32
2019-05-01T09:23:28.335Z,2.44
2019-05-01T09:24:29.409Z,1.84
2019-05-01T09:25:30.985Z,1.33
2019-05-01T09:26:28.627Z,1.26
2019-05-01T09:27:29.279Z,1.63
2019-05-01T09:28:28.401Z,1.38
2019-05-01T09:29:28.924Z,3.93
2019-05-01T09:30:28.821Z,2.56
2019-05-01T09:31:28.394Z,3.09
2019-05-01T09:32:28.351Z,1.20
2019-05-01T09:33:30.883Z,1.41
2019-05-01T09:34:28.373Z,1.35
2019-05-01T09:35:28.307Z,0.76
2019-05-01T09:36:28.388Z,1.33
2019-05-01T09:37:28.384Z,1.57
2019-05-01T09:38:28.365Z,1.42
2019-05-01T09:39:28.415Z,1.06
2019-05-01T09:40:28.417Z,0.69
2019-05-01T09:41:38.097Z,1.63
2019-05-01T09:42:28.431Z,0.40
2019-05-01T09:43:30.898Z,1.30
2019-05-01T09:44:28.541Z,1.95
2019-05-01T09:45:28.419Z,1.97
2019-05-01T09:46:28.469Z,2.73
2019-05-01T09:47:28.311Z,2.95
2019-05-01T09:48:28.312Z,1.09
2019-05-01T09:49:28.477Z,0.58
2019-05-01T09:50:30.436Z,0.25
2019-05-01T09:51:28.394Z,0.14
2019-05-01T09:52:28.429Z,0.76
2019-05-01T09:53:29.764Z,1.07
2019-05-01T09:54:28.421Z,0.65
2019-05-01T09:55:28.588Z,1.03
2019-05-01T09:56:28.370Z,1.43
2019-05-01T09:57:28.478Z,1.04
2019-05-01T09:58:28.462Z,3.14
2019-05-01T09:59:28.389Z,2.90
2019-05-01T10:00:28.419Z,1.16
2019-05-01T10:01:32.045Z,0.69
2019-05-01T10:02:28.410Z,1.57
2019-05-01T10:03:28.317Z,1.47
2019-05-01T10:04:30.226Z,0.98
2019-05-01T10:05:29.263Z,1.07
2019-05-01T10:06:28.836Z,0.85
2019-05-01T10:07:29.105Z,1.22
2019-05-01T10:08:28.399Z,1.16
2019-05-01T10:09:28.388Z,0.60
2019-05-01T10:10:29.373Z,0.45
2019-05-01T10:11:28.408Z,1.37
2019-05-01T10:12:28.481Z,2.39
2019-05-01T10:13:28.383Z,2.63
2019-05-01T10:14:31.630Z,2.02
2019-05-01T10:15:28.432Z,1.29
2019-05-01T10:16:28.496Z,2.17
2019-05-01T10:17:28.460Z,1.73
2019-05-01T10:18:28.621Z,1.45
2019-05-01T10:19:28.412Z,1.41
2019-05-01T10:20:28.798Z,2.17
2019-05-01T10:21:28.905Z,1.99
2019-05-01T10:22:28.444Z,1.98
2019-05-01T10:23:28.397Z,1.91
2019-05-01T10:24:31.941Z,3.97
2019-05-01T10:25:28.457Z,3.04
2019-05-01T10:26:28.470Z,2.22
2019-05-01T10:27:30.859Z,3.07
2019-05-01T10:28:28.560Z,2.46
2019-05-01T10:29:28.456Z,2.75
2019-05-01T10:30:31.729Z,0.76
2019-05-01T10:31:28.516Z,1.76
2019-05-01T10:32:28.439Z,0.80
2019-05-01T10:33:29.079Z,2.57
2019-05-01T10:34:28.622Z,3.49
2019-05-01T10:35:41.558Z,3.13
2019-05-01T10:36:28.501Z,5.38
2019-05-01T10:37:33.155Z,4.52
2019-05-01T10:38:28.414Z,3.28
2019-05-01T10:39:30.196Z,3.28
2019-05-01T10:40:32.241Z,2.62
2019-05-01T10:41:28.584Z,2.48
2019-05-01T10:42:28.481Z,2.18
2019-05-01T10:43:28.484Z,1.33
2019-05-01T10:44:28.486Z,1.75
2019-05-01T10:45:28.469Z,1.51
2019-05-01T10:46:28.467Z,2.20
2019-05-01T10:47:28.536Z,2.37
2019-05-01T10:48:28.487Z,1.54
2019-05-01T10:49:28.550Z,0.84
2019-05-01T10:50:28.648Z,2.69
2019-05-01T10:51:28.497Z,2.11
2019-05-01T10:52:28.428Z,1.39
2019-05-01T10:53:28.461Z,2.30
2019-05-01T10:54:28.469Z,2.16
2019-05-01T10:55:28.407Z,2.15
2019-05-01T10:56:28.426Z,1.25
2019-05-01T10:57:28.509Z,1.87
2019-05-01T10:58:28.648Z,2.39
2019-05-01T10:59:28.455Z,1.93
2019-05-01T11:00:28.447Z,3.90
2019-05-01T11:01:28.750Z,2.54
2019-05-01T11:02:28.401Z,3.23
2019-05-01T11:03:28.485Z,2.88
2019-05-01T11:04:28.491Z,1.50
2019-05-01T11:05:28.534Z,1.23
2019-05-01T11:06:28.528Z,1.47
2019-05-01T11:07:29.063Z,3.26
2019-05-01T11:08:31.075Z,4.04
2019-05-01T11:09:28.612Z,4.53
2019-05-01T11:10:28.611Z,4.65
2019-05-01T11:11:28.541Z,2.66
2019-05-01T11:12:28.676Z,2.40
2019-05-01T11:13:28.505Z,2.56
2019-05-01T11:14:28.512Z,3.67
2019-05-01T11:15:28.519Z,1.79
2019-05-01T11:16:28.630Z,1.65
2019-05-01T11:17:28.400Z,4.11
2019-05-01T11:18:28.764Z,4.59
2019-05-01T11:19:29.734Z,3.40
2019-05-01T11:20:28.581Z,2.13
2019-05-01T11:21:28.502Z,2.90
2019-05-01T11:22:28.575Z,2.25
2019-05-01T11:23:28.714Z,3.93
2019-05-01T11:24:28.743Z,5.64
2019-05-01T11:25:28.622Z,3.73
2019-05-01T11:26:28.539Z,3.43
2019-05-01T11:27:28.546Z,2.20
2019-05-01T11:28:28.523Z,2.65
2019-05-01T11:29:28.545Z,1.94
2019-05-01T11:30:28.458Z,4.28
2019-05-01T11:31:28.584Z,3.28
2019-05-01T11:32:28.500Z,4.46
2019-05-01T11:33:28.537Z,1.54
2019-05-01T11:34:28.719Z,0.77
2019-05-01T11:35:28.908Z,2.82
2019-05-01T11:36:28.641Z,2.66
2019-05-01T11:37:28.599Z,1.36
2019-05-01T11:38:28.611Z,2.18
2019-05-01T11:39:28.523Z,3.88
2019-05-01T11:40:28.483Z,2.16
2019-05-01T11:41:28.668Z,2.72
2019-05-01T11:42:28.924Z,2.26
2019-05-01T11:43:28.558Z,0.54
2019-05-01T11:44:28.677Z,0.65
2019-05-01T11:45:28.641Z,0.88
2019-05-01T11:46:28.648Z,2.07
2019-05-01T11:47:28.520Z,2.24
2019-05-01T11:48:30.236Z,2.13
2019-05-01T11:49:28.526Z,4.00
2019-05-01T11:50:28.616Z,2.32
2019-05-01T11:51:28.513Z,2.13
2019-05-01T11:52:28.756Z,2.86
2019-05-01T11:53:28.489Z,1.91
2019-05-01T11:54:28.608Z,3.90
2019-05-01T11:55:28.619Z,2.98
2019-05-01T11:56:28.660Z,2.37
2019-05-01T11:57:28.622Z,2.65
2019-05-01T11:58:28.537Z,2.22
2019-05-01T11:59:28.611Z,2.77
2019-05-01T12:00:28.610Z,3.59
2019-05-01T12:01:28.670Z,3.42
2019-05-01T12:02:28.710Z,1.86
2019-05-01T12:03:28.610Z,1.44
2019-05-01T12:04:28.496Z,3.08
2019-05-01T12:05:28.617Z,4.68
2019-05-01T12:06:28.635Z,3.43
2019-05-01T12:07:28.786Z,3.07
2019-05-01T12:08:28.585Z,1.61
2019-05-01T12:09:28.625Z,1.80
2019-05-01T12:10:28.545Z,2.18
2019-05-01T12:11:28.744Z,2.90
2019-05-01T12:12:28.586Z,2.12
2019-05-01T12:13:28.614Z,1.73
2019-05-01T12:14:28.544Z,2.94
2019-05-01T12:15:28.716Z,1.25
2019-05-01T12:16:28.758Z,0.92
2019-05-01T12:17:28.607Z,1.71
2019-05-01T12:18:28.812Z,2.14
2019-05-01T12:19:28.532Z,5.26
2019-05-01T12:20:28.616Z,2.87
2019-05-01T12:21:28.561Z,2.11
2019-05-01T12:22:29.430Z,1.26
2019-05-01T12:23:28.681Z,1.70
2019-05-01T12:24:28.892Z,1.04
2019-05-01T12:25:28.663Z,0.37
2019-05-01T12:26:28.622Z,1.42
2019-05-01T12:27:28.586Z,2.33
2019-05-01T12:28:28.722Z,3.00
2019-05-01T12:29:28.843Z,3.02
2019-05-01T12:30:28.490Z,2.73
2019-05-01T12:31:31.301Z,1.43
2019-05-01T12:32:28.748Z,3.49
2019-05-01T12:33:28.821Z,1.63
2019-05-01T12:34:28.608Z,0.35
2019-05-01T12:35:28.615Z,1.24
2019-05-01T12:36:36.136Z,0.52
2019-05-01T12:37:28.677Z,1.78
2019-05-01T12:38:28.686Z,3.02
2019-05-01T12:39:28.639Z,2.35
2019-05-01T12:40:28.640Z,1.55
2019-05-01T12:41:28.690Z,2.00
2019-05-01T12:42:28.683Z,1.28
2019-05-01T12:43:28.608Z,2.68
2019-05-01T12:44:28.627Z,1.32
2019-05-01T12:45:28.662Z,0.84
2019-05-01T12:46:28.728Z,0.90
2019-05-01T12:47:28.601Z,1.44
2019-05-01T12:48:28.758Z,1.91
2019-05-01T12:49:28.613Z,2.90
2019-05-01T12:50:28.638Z,1.11
2019-05-01T12:51:28.836Z,2.80
2019-05-01T12:52:28.670Z,1.55
2019-05-01T12:53:28.683Z,1.13
2019-05-01T12:54:28.704Z,1.43
2019-05-01T12:55:28.597Z,1.93
2019-05-01T12:56:28.748Z,2.29
2019-05-01T12:57:28.721Z,4.02
2019-05-01T12:58:28.710Z,3.76
2019-05-01T12:59:28.628Z,0.87
2019-05-01T13:00:28.647Z,0.82
2019-05-01T13:01:28.786Z,2.26
2019-05-01T13:02:28.817Z,3.30
2019-05-01T13:03:28.639Z,3.23
2019-05-01T13:04:28.639Z,4.17
2019-05-01T13:05:28.911Z,3.26
2019-05-01T13:06:28.771Z,1.70
2019-05-01T13:07:28.665Z,1.80
2019-05-01T13:08:28.835Z,1.89
2019-05-01T13:09:28.691Z,1.81
2019-05-01T13:10:28.706Z,1.49
2019-05-01T13:11:28.763Z,1.72
2019-05-01T13:12:28.765Z,2.54
2019-05-01T13:13:28.840Z,2.13
2019-05-01T13:14:28.614Z,1.08
2019-05-01T13:15:28.672Z,1.41
2019-05-01T13:16:28.645Z,1.41
2019-05-01T13:17:28.687Z,1.41
2019-05-01T13:18:28.649Z,1.01
2019-05-01T13:19:28.671Z,2.72